Time;durP1;ratioP1;P1;durP2;ratioP2;P2;SDS_P1;SDS_P2;PMS_P1;PMS_P2;Temp;Humidity;BMP_temperature;BMP_pressure;BME280_temperature;BME280_humidity;BME280_pressure;Samples;Min_cycle;Max_cycle;Signal;HPM_P1;HPM_P2
2020/12/17 00:01:03;;;;;;;;;;;10.70;99.90;;;;;;5045792;28;19960;-69
2020/12/17 00:03:29;;;;;;;;;;;10.60;99.90;;;;;;5057454;28;20352;-70
2020/12/17 00:05:54;;;;;;;;;;;10.60;99.90;;;;;;5044574;28;20379;-69
2020/12/17 00:08:20;;;;;;;;;;;10.70;99.90;;;;;;5031041;28;20415;-70
2020/12/17 00:10:45;;;;;;;;;;;10.70;99.90;;;;;;5041586;28;19909;-69
2020/12/17 00:13:11;;;;;;;;;;;10.70;99.90;;;;;;5053791;28;20426;-69
2020/12/17 00:15:36;;;;;;;;;;;10.80;99.90;;;;;;5037545;28;19916;-69
2020/12/17 00:18:02;;;;;;;;;;;10.80;99.90;;;;;;5033907;28;19936;-69
2020/12/17 00:20:28;;;;;;;;;;;10.80;99.90;;;;;;5030599;28;20327;-68
2020/12/17 00:22:53;;;;;;;;;;;10.80;99.90;;;;;;5033889;28;19913;-69
2020/12/17 00:25:19;;;;;;;;;;;10.90;99.90;;;;;;5044782;28;19948;-68
2020/12/17 00:27:45;;;;;;;;;;;10.80;99.90;;;;;;5047370;28;20360;-68
2020/12/17 00:30:13;;;;;;;;;;;10.90;99.90;;;;;;5045503;28;20448;-68
2020/12/17 00:32:39;;;;;;;;;;;10.90;99.90;;;;;;5037646;28;19963;-69
2020/12/17 00:35:05;;;;;;;;;;;10.90;99.90;;;;;;5043329;28;19921;-69
2020/12/17 00:37:34;;;;;;;;;;;10.90;99.90;;;;;;5044857;28;19919;-68
2020/12/17 00:40:01;;;;;;;;;;;10.90;99.90;;;;;;5042138;28;19908;-69
2020/12/17 00:42:26;;;;;;;;;;;10.90;99.90;;;;;;5049002;28;19912;-69
2020/12/17 00:44:52;;;;;;;;;;;10.90;99.90;;;;;;5048473;28;19915;-69
2020/12/17 00:47:17;;;;;;;;;;;11.00;99.90;;;;;;5036401;28;20269;-69
2020/12/17 00:49:43;;;;;;;;;;;10.90;99.90;;;;;;5046230;28;19971;-69
2020/12/17 00:52:09;;;;;;;;;;;11.00;99.90;;;;;;5045794;28;20408;-68
2020/12/17 00:54:37;;;;;;;;;;;11.00;99.90;;;;;;5040835;28;19951;-69
2020/12/17 00:57:02;;;;;;;;;;;10.90;99.90;;;;;;5048911;28;19966;-69
2020/12/17 00:59:28;;;;;;;;;;;11.00;99.90;;;;;;5041195;28;19913;-68
2020/12/17 01:01:53;;;;;;;;;;;11.00;99.90;;;;;;5048744;28;19915;-68
2020/12/17 01:04:19;;;;;;;;;;;11.00;99.90;;;;;;5036212;28;19974;-68
2020/12/17 01:06:44;;;;;;;;;;;10.90;99.90;;;;;;5043701;28;19979;-68
2020/12/17 01:09:10;;;;;;;;;;;10.90;99.90;;;;;;5026291;28;20362;-68
2020/12/17 01:11:36;;;;;;;;;;;11.00;99.90;;;;;;5037293;28;19947;-68
2020/12/17 01:14:02;;;;;;;;;;;11.00;99.90;;;;;;5041633;28;19953;-68
2020/12/17 01:16:27;;;;;;;;;;;10.90;99.90;;;;;;5042779;28;20429;-68
2020/12/17 01:18:53;;;;;;;;;;;10.80;99.90;;;;;;5039872;28;19913;-69
2020/12/17 01:21:19;;;;;;;;;;;10.80;99.90;;;;;;5052411;28;19916;-68
2020/12/17 01:23:44;;;;;;;;;;;10.80;99.90;;;;;;5031781;28;19916;-69
2020/12/17 01:26:10;;;;;;;;;;;10.80;99.90;;;;;;5057180;28;19952;-69
2020/12/17 01:28:36;;;;;;;;;;;10.80;99.90;;;;;;5040344;28;19971;-68
2020/12/17 01:31:06;;;;;;;;;;;10.90;99.90;;;;;;5044170;28;19974;-69
2020/12/17 01:33:32;;;;;;;;;;;10.80;99.90;;;;;;5047858;28;19920;-69
2020/12/17 01:35:59;;;;;;;;;;;10.90;99.90;;;;;;5041954;28;19957;-68
2020/12/17 01:38:25;;;;;;;;;;;10.90;99.90;;;;;;5018834;28;19909;-68
2020/12/17 01:40:50;;;;;;;;;;;10.80;99.90;;;;;;5039759;28;19913;-68
2020/12/17 01:43:16;;;;;;;;;;;10.90;99.90;;;;;;5044284;28;19913;-69
2020/12/17 01:45:41;;;;;;;;;;;10.80;99.90;;;;;;5038839;28;19961;-69
2020/12/17 01:48:07;;;;;;;;;;;10.70;99.90;;;;;;5036565;28;20003;-69
2020/12/17 01:50:36;;;;;;;;;;;10.70;99.90;;;;;;5026269;28;19917;-69
2020/12/17 01:53:01;;;;;;;;;;;10.70;99.90;;;;;;5042755;28;19917;-69
2020/12/17 01:55:30;;;;;;;;;;;10.70;99.90;;;;;;5043969;28;19994;-68
2020/12/17 01:57:57;;;;;;;;;;;10.70;99.90;;;;;;5020167;28;19915;-68
2020/12/17 02:00:24;;;;;;;;;;;10.80;99.90;;;;;;5032140;28;19905;-68
2020/12/17 02:02:50;;;;;;;;;;;10.80;99.90;;;;;;5043021;28;20000;-68
2020/12/17 02:05:15;;;;;;;;;;;10.80;99.90;;;;;;5044369;28;20003;-68
2020/12/17 02:07:44;;;;;;;;;;;10.80;99.90;;;;;;5045298;28;19929;-69
2020/12/17 02:10:10;;;;;;;;;;;10.70;99.90;;;;;;5021780;28;20433;-68
2020/12/17 02:12:45;;;;;;;;;;;10.70;99.90;;;;;;5045663;28;19959;-68
2020/12/17 02:15:11;;;;;;;;;;;10.80;99.90;;;;;;5031119;28;19917;-67
2020/12/17 02:17:36;;;;;;;;;;;10.80;99.90;;;;;;5038655;28;20020;-68
2020/12/17 02:20:04;;;;;;;;;;;10.90;99.90;;;;;;5045345;28;19917;-68
2020/12/17 02:22:29;;;;;;;;;;;10.90;99.90;;;;;;5024253;28;20411;-68
2020/12/17 02:24:54;;;;;;;;;;;10.90;99.90;;;;;;5039358;28;19938;-68
2020/12/17 02:27:20;;;;;;;;;;;11.00;99.90;;;;;;5044222;28;19908;-68
2020/12/17 02:29:45;;;;;;;;;;;11.00;99.90;;;;;;5039776;28;19908;-68
2020/12/17 02:32:11;;;;;;;;;;;11.00;99.90;;;;;;5020010;28;19917;-68
2020/12/17 02:34:37;;;;;;;;;;;11.00;99.90;;;;;;5044775;28;19944;-68
2020/12/17 02:37:03;;;;;;;;;;;11.00;99.90;;;;;;5043011;28;19919;-68
2020/12/17 02:39:28;;;;;;;;;;;10.90;99.90;;;;;;5047286;28;19912;-68
2020/12/17 02:41:54;;;;;;;;;;;10.90;99.90;;;;;;5022942;28;19911;-68
2020/12/17 02:44:19;;;;;;;;;;;10.90;99.90;;;;;;5042774;28;20450;-68
2020/12/17 02:46:45;;;;;;;;;;;10.80;99.90;;;;;;5038354;28;19954;-69
2020/12/17 02:49:10;;;;;;;;;;;10.80;99.90;;;;;;5029620;28;19915;-69
2020/12/17 02:51:39;;;;;;;;;;;10.70;99.90;;;;;;5043873;28;19909;-69
2020/12/17 02:54:04;;;;;;;;;;;10.70;99.90;;;;;;5038249;28;19954;-69
2020/12/17 02:56:30;;;;;;;;;;;10.70;99.90;;;;;;5040699;28;19921;-69
2020/12/17 02:58:56;;;;;;;;;;;10.60;99.90;;;;;;5038309;28;19921;-69
2020/12/17 03:01:23;;;;;;;;;;;10.60;99.90;;;;;;5068543;28;19916;-67
2020/12/17 03:03:49;;;;;;;;;;;10.70;99.90;;;;;;5066351;28;20276;-68
2020/12/17 03:06:14;;;;;;;;;;;10.70;99.90;;;;;;5062287;28;19915;-68
2020/12/17 03:08:40;;;;;;;;;;;10.60;99.90;;;;;;5059419;28;19928;-68
2020/12/17 03:11:05;;;;;;;;;;;10.70;99.90;;;;;;5044067;28;19908;-68
2020/12/17 03:13:31;;;;;;;;;;;10.70;99.90;;;;;;5059133;28;19911;-67
2020/12/17 03:15:56;;;;;;;;;;;10.70;99.90;;;;;;5067005;28;19923;-68
2020/12/17 03:18:22;;;;;;;;;;;10.80;99.90;;;;;;5050475;28;20421;-68
2020/12/17 03:20:47;;;;;;;;;;;10.70;99.90;;;;;;5054858;28;20371;-68
2020/12/17 03:23:13;;;;;;;;;;;10.80;99.90;;;;;;5069122;28;19939;-67
2020/12/17 03:25:38;;;;;;;;;;;10.90;99.90;;;;;;5059310;28;19917;-68
2020/12/17 03:28:04;;;;;;;;;;;10.80;99.90;;;;;;5060821;28;20001;-68
2020/12/17 03:30:31;;;;;;;;;;;10.90;99.90;;;;;;5036947;28;20361;-68
2020/12/17 03:33:07;;;;;;;;;;;10.80;99.90;;;;;;5059868;28;19961;-68
2020/12/17 03:35:32;;;;;;;;;;;10.80;99.90;;;;;;5061404;28;19960;-67
2020/12/17 03:37:58;;;;;;;;;;;10.80;99.90;;;;;;5068915;28;20021;-68
2020/12/17 03:40:24;;;;;;;;;;;10.80;99.90;;;;;;5061756;28;19920;-68
2020/12/17 03:42:50;;;;;;;;;;;10.80;99.90;;;;;;5060829;28;19909;-68
2020/12/17 03:45:16;;;;;;;;;;;10.90;99.90;;;;;;5061655;28;19908;-68
2020/12/17 03:47:41;;;;;;;;;;;10.80;99.90;;;;;;5035784;28;20261;-68
2020/12/17 03:50:07;;;;;;;;;;;10.80;99.90;;;;;;5062726;28;20719;-68
2020/12/17 03:52:32;;;;;;;;;;;10.80;99.90;;;;;;5068350;28;19908;-68
2020/12/17 03:54:57;;;;;;;;;;;10.80;99.90;;;;;;5060140;28;19912;-68
2020/12/17 03:57:23;;;;;;;;;;;10.90;99.90;;;;;;5062046;28;19919;-67
2020/12/17 03:59:48;;;;;;;;;;;10.90;99.90;;;;;;5062518;28;19917;-67
2020/12/17 04:02:14;;;;;;;;;;;10.80;99.90;;;;;;5066879;28;19948;-69
2020/12/17 04:04:39;;;;;;;;;;;10.80;99.90;;;;;;5065735;28;19908;-69
2020/12/17 04:07:05;;;;;;;;;;;10.80;99.90;;;;;;5064327;28;19927;-67
2020/12/17 04:09:30;;;;;;;;;;;10.80;99.90;;;;;;5064449;28;20427;-67
2020/12/17 04:11:56;;;;;;;;;;;10.80;99.90;;;;;;5061414;28;19912;-66
2020/12/17 04:14:21;;;;;;;;;;;10.80;99.90;;;;;;5066315;28;19923;-67
2020/12/17 04:16:47;;;;;;;;;;;10.80;99.90;;;;;;5052412;28;20016;-68
2020/12/17 04:19:12;;;;;;;;;;;10.80;99.90;;;;;;5062053;28;19919;-68
2020/12/17 04:21:38;;;;;;;;;;;10.80;99.90;;;;;;5073580;28;19900;-67
2020/12/17 04:24:04;;;;;;;;;;;10.80;99.90;;;;;;5073148;28;20417;-68
2020/12/17 04:26:29;;;;;;;;;;;10.70;99.90;;;;;;5068414;28;20007;-68
2020/12/17 04:28:55;;;;;;;;;;;10.80;99.90;;;;;;5069182;28;19905;-68
2020/12/17 04:31:20;;;;;;;;;;;10.70;99.90;;;;;;5063650;28;19939;-68
2020/12/17 04:33:46;;;;;;;;;;;10.80;99.90;;;;;;5064302;28;19912;-68
2020/12/17 04:36:11;;;;;;;;;;;9.80;99.90;;;;;;5071237;28;19955;-66
2020/12/17 04:38:37;;;;;;;;;;;10.70;99.90;;;;;;5066265;28;19916;-66
2020/12/17 04:41:04;;;;;;;;;;;10.60;99.90;;;;;;5071456;28;19908;-66
2020/12/17 04:43:29;;;;;;;;;;;10.70;99.90;;;;;;5048054;28;19908;-67
2020/12/17 04:45:55;;;;;;;;;;;10.70;99.90;;;;;;5064157;28;20012;-67
2020/12/17 04:48:25;;;;;;;;;;;10.70;99.90;;;;;;5061372;28;20042;-67
2020/12/17 04:50:50;;;;;;;;;;;10.70;99.90;;;;;;5066728;28;20378;-67
2020/12/17 04:53:16;;;;;;;;;;;10.70;99.90;;;;;;5068387;28;20003;-67
2020/12/17 04:55:42;;;;;;;;;;;10.60;99.90;;;;;;5061450;28;19924;-68
2020/12/17 04:58:09;;;;;;;;;;;10.70;99.90;;;;;;5044820;28;20275;-68
2020/12/17 05:00:38;;;;;;;;;;;10.70;99.90;;;;;;5067088;28;20439;-68
2020/12/17 05:03:04;;;;;;;;;;;10.60;99.90;;;;;;5059104;28;19958;-69
2020/12/17 05:05:29;;;;;;;;;;;10.70;99.90;;;;;;5061860;28;19912;-67
2020/12/17 05:07:56;;;;;;;;;;;10.70;99.90;;;;;;5045154;28;20653;-66
2020/12/17 05:10:21;;;;;;;;;;;10.70;99.90;;;;;;5064138;28;19924;-66
2020/12/17 05:12:47;;;;;;;;;;;10.60;99.90;;;;;;5066119;28;20019;-67
2020/12/17 05:15:12;;;;;;;;;;;10.60;99.90;;;;;;5068217;28;20256;-66
2020/12/17 05:17:38;;;;;;;;;;;10.60;99.90;;;;;;5071270;28;19992;-67
2020/12/17 05:20:05;;;;;;;;;;;10.60;99.90;;;;;;5046304;28;19912;-67
2020/12/17 05:22:31;;;;;;;;;;;10.50;99.90;;;;;;5059862;28;19923;-67
2020/12/17 05:24:57;;;;;;;;;;;10.50;99.90;;;;;;5047225;28;19908;-67
2020/12/17 05:27:22;;;;;;;;;;;10.50;99.90;;;;;;5068599;28;19912;-66
2020/12/17 05:29:48;;;;;;;;;;;10.50;99.90;;;;;;5067294;28;19916;-67
2020/12/17 05:32:18;;;;;;;;;;;10.60;99.90;;;;;;5064043;28;20335;-68
2020/12/17 05:34:44;;;;;;;;;;;10.50;99.90;;;;;;5064735;28;19909;-66
2020/12/17 05:37:09;;;;;;;;;;;10.60;99.90;;;;;;5070641;28;19995;-67
2020/12/17 05:39:41;;;;;;;;;;;10.60;99.90;;;;;;5062826;28;20268;-66
2020/12/17 05:42:10;;;;;;;;;;;10.60;99.90;;;;;;5059636;28;19909;-67
2020/12/17 05:44:35;;;;;;;;;;;10.60;99.90;;;;;;5059841;28;19966;-67
2020/12/17 05:47:01;;;;;;;;;;;10.40;99.90;;;;;;5070696;28;19920;-66
2020/12/17 05:49:28;;;;;;;;;;;10.40;99.90;;;;;;5071199;28;20360;-67
2020/12/17 05:52:10;;;;;;;;;;;10.40;99.90;;;;;;5071328;28;19912;-67
2020/12/17 05:54:35;;;;;;;;;;;10.40;99.90;;;;;;5071851;28;19905;-66
2020/12/17 05:57:08;;;;;;;;;;;10.40;99.90;;;;;;5066298;28;19927;-67
2020/12/17 05:59:34;;;;;;;;;;;10.40;99.90;;;;;;5056517;28;19913;-67
2020/12/17 06:02:22;;;;;;;;;;;10.40;99.90;;;;;;5044753;28;19915;-67
2020/12/17 06:05:08;;;;;;;;;;;10.40;99.90;;;;;;5044701;28;21179;-67
2020/12/17 06:07:49;;;;;;;;;;;10.40;99.90;;;;;;5056733;28;20407;-66
2020/12/17 06:10:17;;;;;;;;;;;10.40;99.90;;;;;;5068659;28;19936;-67
2020/12/17 06:12:44;;;;;;;;;;;10.40;99.90;;;;;;5058295;28;20356;-67
2020/12/17 06:15:10;;;;;;;;;;;10.40;99.90;;;;;;5049972;28;20047;-67
2020/12/17 06:18:10;;;;;;;;;;;10.40;99.90;;;;;;5070006;28;19915;-67
2020/12/17 06:21:09;;;;;;;;;;;;;;;;;;;;;
2020/12/17 06:24:09;;;;;;;;;;;;;;;;;;;;;
2020/12/17 07:22:56;;;;;;;;;;;9.70;99.90;;;;;;4970459;28;20417;-69
2020/12/17 07:25:32;;;;;;;;;;;9.70;99.90;;;;;;4984678;28;19914;-69
2020/12/17 07:27:58;;;;;;;;;;;9.70;99.90;;;;;;5040061;28;19905;-68
2020/12/17 07:30:24;;;;;;;;;;;9.60;99.90;;;;;;5046163;28;21073;-68
2020/12/17 07:32:50;;;;;;;;;;;9.50;99.90;;;;;;5044827;28;19928;-69
2020/12/17 07:35:17;;;;;;;;;;;9.50;99.90;;;;;;5040103;28;19920;-69
2020/12/17 07:37:50;;;;;;;;;;;9.50;99.90;;;;;;5049150;28;19917;-67
2020/12/17 07:40:30;;;;;;;;;;;9.50;99.90;;;;;;5048527;28;19920;-67
2020/12/17 07:42:59;;;;;;;;;;;9.50;99.90;;;;;;5042964;28;19944;-68
2020/12/17 07:45:39;;;;;;;;;;;9.50;99.90;;;;;;5044835;28;19905;-69
2020/12/17 07:48:25;;;;;;;;;;;9.50;99.90;;;;;;5039483;28;19966;-69
2020/12/17 07:50:50;;;;;;;;;;;9.50;99.90;;;;;;5048541;28;19982;-69
2020/12/17 07:53:23;;;;;;;;;;;9.50;99.90;;;;;;5042364;28;20352;-70
2020/12/17 07:55:52;;;;;;;;;;;9.50;99.90;;;;;;5051838;28;19944;-68
2020/12/17 07:58:17;;;;;;;;;;;9.40;99.90;;;;;;5040671;28;19962;-70
2020/12/17 08:00:43;;;;;;;;;;;9.40;99.90;;;;;;5050892;28;19916;-69
2020/12/17 08:03:09;;;;;;;;;;;9.40;99.90;;;;;;5052852;28;20019;-69
2020/12/17 08:05:34;;;;;;;;;;;9.30;99.90;;;;;;5047069;28;21562;-68
2020/12/17 08:08:00;;;;;;;;;;;9.30;99.90;;;;;;5042559;28;19921;-69
2020/12/17 08:10:25;;;;;;;;;;;9.30;99.90;;;;;;5043731;28;19959;-69
2020/12/17 08:12:51;;;;;;;;;;;9.30;99.90;;;;;;5035007;28;19915;-68
2020/12/17 08:15:18;;;;;;;;;;;9.30;99.90;;;;;;5039894;28;20291;-69
2020/12/17 08:17:47;;;;;;;;;;;9.30;99.90;;;;;;5040129;28;19915;-69
2020/12/17 08:20:15;;;;;;;;;;;9.30;99.90;;;;;;5042962;28;19908;-68
2020/12/17 08:22:42;;;;;;;;;;;9.30;99.90;;;;;;5039106;28;19923;-68
2020/12/17 08:25:08;;;;;;;;;;;9.30;99.90;;;;;;5035129;28;19936;-68
2020/12/17 08:27:34;;;;;;;;;;;9.30;99.90;;;;;;5040668;28;19908;-68
2020/12/17 08:30:00;;;;;;;;;;;9.30;99.90;;;;;;5048230;28;19915;-66
2020/12/17 08:32:27;;;;;;;;;;;9.40;99.90;;;;;;5039867;28;19916;-68
2020/12/17 08:34:56;;;;;;;;;;;9.40;99.90;;;;;;5040840;28;20011;-68
2020/12/17 08:37:22;;;;;;;;;;;9.40;99.90;;;;;;5037930;28;19958;-69
2020/12/17 08:40:00;;;;;;;;;;;9.40;99.90;;;;;;5048678;28;19913;-68
2020/12/17 08:42:31;;;;;;;;;;;9.40;99.90;;;;;;5048021;28;19916;-68
2020/12/17 08:45:01;;;;;;;;;;;9.40;99.90;;;;;;5042728;28;19913;-68
2020/12/17 08:47:28;;;;;;;;;;;9.40;99.90;;;;;;5040027;28;19913;-69
2020/12/17 08:49:54;;;;;;;;;;;9.40;99.90;;;;;;5040239;28;19947;-69
2020/12/17 08:52:27;;;;;;;;;;;9.40;99.90;;;;;;5043620;28;20340;-70
2020/12/17 08:54:59;;;;;;;;;;;9.40;99.90;;;;;;5039503;28;19923;-68
2020/12/17 08:57:25;;;;;;;;;;;9.30;99.90;;;;;;5041860;28;19913;-70
2020/12/17 08:59:53;;;;;;;;;;;9.40;99.90;;;;;;5025075;28;19966;-69
2020/12/17 09:02:25;;;;;;;;;;;9.30;99.90;;;;;;5027762;28;20361;-70
2020/12/17 09:04:54;;;;;;;;;;;9.30;99.90;;;;;;5040739;28;19913;-71
2020/12/17 09:07:24;;;;;;;;;;;9.30;99.90;;;;;;5043014;28;19919;-70
2020/12/17 09:09:49;;;;;;;;;;;9.40;99.90;;;;;;5037546;28;20433;-70
2020/12/17 09:12:25;;;;;;;;;;;9.30;99.90;;;;;;5031395;28;19999;-70
2020/12/17 09:14:51;;;;;;;;;;;9.40;99.90;;;;;;5043976;28;20009;-70
2020/12/17 09:17:17;;;;;;;;;;;9.40;99.90;;;;;;5043589;28;20223;-71
2020/12/17 09:19:46;;;;;;;;;;;9.30;99.90;;;;;;5046931;28;19913;-70
2020/12/17 09:22:12;;;;;;;;;;;9.30;99.90;;;;;;5055531;28;19975;-70
2020/12/17 09:24:38;;;;;;;;;;;9.30;99.90;;;;;;5066107;28;20010;-70
2020/12/17 09:27:13;;;;;;;;;;;9.30;99.90;;;;;;5051980;28;19913;-69
2020/12/17 09:29:39;;;;;;;;;;;9.40;99.90;;;;;;5039988;28;19920;-69
2020/12/17 09:32:17;;;;;;;;;;;9.40;99.90;;;;;;5046189;28;19916;-69
2020/12/17 09:34:42;;;;;;;;;;;9.30;99.90;;;;;;5051454;28;19913;-70
2020/12/17 09:37:10;;;;;;;;;;;9.40;99.90;;;;;;5040063;28;20390;-69
2020/12/17 09:39:41;;;;;;;;;;;9.40;99.90;;;;;;5047696;28;19916;-69
2020/12/17 09:42:06;;;;;;;;;;;9.40;99.90;;;;;;5044088;28;20024;-69
2020/12/17 09:44:33;;;;;;;;;;;9.50;99.90;;;;;;5039522;28;20422;-69
2020/12/17 09:47:00;;;;;;;;;;;9.50;99.90;;;;;;5047816;28;19924;-69
2020/12/17 09:49:27;;;;;;;;;;;9.60;99.90;;;;;;5040491;28;20438;-69
2020/12/17 09:51:59;;;;;;;;;;;9.00;99.90;;;;;;5028721;28;19920;-69
2020/12/17 09:54:24;;;;;;;;;;;10.00;99.90;;;;;;5037856;28;19955;-69
2020/12/17 09:57:19;;;;;;;;;;;10.50;99.90;;;;;;5027712;28;19945;-68
2020/12/17 09:59:45;;;;;;;;;;;10.90;99.90;;;;;;5012337;28;19951;-69
2020/12/17 10:02:12;;;;;;;;;;;11.10;99.90;;;;;;5027728;28;20343;-69
2020/12/17 10:04:38;;;;;;;;;;;11.10;99.90;;;;;;5043484;28;19912;-69
2020/12/17 10:07:04;;;;;;;;;;;11.00;99.90;;;;;;5046580;28;20498;-68
2020/12/17 10:09:30;;;;;;;;;;;10.70;99.90;;;;;;5059615;28;20538;-71
2020/12/17 10:11:57;;;;;;;;;;;10.60;99.90;;;;;;5063323;28;19969;-70
2020/12/17 10:14:22;;;;;;;;;;;11.20;99.90;;;;;;5063537;28;21048;-69
2020/12/17 10:16:48;;;;;;;;;;;11.30;99.90;;;;;;5052132;28;19920;-69
2020/12/17 10:19:16;;;;;;;;;;;11.30;99.90;;;;;;5053029;28;19918;-69
2020/12/17 10:21:42;;;;;;;;;;;11.00;99.90;;;;;;5053772;28;19916;-69
2020/12/17 10:24:07;;;;;;;;;;;11.10;99.90;;;;;;5048688;28;19964;-69
2020/12/17 10:26:33;;;;;;;;;;;11.60;99.90;;;;;;5063777;28;19915;-69
2020/12/17 10:28:59;;;;;;;;;;;12.50;99.90;;;;;;5029087;28;19919;-69
2020/12/17 10:31:28;;;;;;;;;;;12.50;99.90;;;;;;5052703;28;20027;-69
2020/12/17 10:33:54;;;;;;;;;;;12.00;99.90;;;;;;5053351;28;19963;-69
2020/12/17 10:36:19;;;;;;;;;;;11.60;99.90;;;;;;5051613;28;19920;-69
2020/12/17 10:38:45;;;;;;;;;;;11.40;99.90;;;;;;5055672;28;19920;-70
2020/12/17 10:41:12;;;;;;;;;;;11.20;99.90;;;;;;5059501;28;19966;-69
2020/12/17 10:43:37;;;;;;;;;;;10.90;99.90;;;;;;5056397;28;19977;-69
2020/12/17 10:46:03;;;;;;;;;;;10.70;99.90;;;;;;5054640;28;20281;-69
2020/12/17 10:48:28;;;;;;;;;;;10.90;99.90;;;;;;5054617;28;19920;-68
2020/12/17 10:50:54;;;;;;;;;;;11.10;99.90;;;;;;5046719;28;19920;-69
2020/12/17 10:53:20;;;;;;;;;;;11.20;99.90;;;;;;5051868;28;19916;-70
2020/12/17 10:55:45;;;;;;;;;;;11.10;99.90;;;;;;5056596;28;19921;-69
2020/12/17 10:58:12;;;;;;;;;;;10.90;99.90;;;;;;5049863;28;20496;-69
2020/12/17 11:00:38;;;;;;;;;;;10.80;99.90;;;;;;5030454;28;20714;-69
2020/12/17 11:03:07;;;;;;;;;;;10.80;99.90;;;;;;5045270;28;19990;-69
2020/12/17 11:05:34;;;;;;;;;;;10.70;99.90;;;;;;5054030;28;20431;-69
2020/12/17 11:07:59;;;;;;;;;;;10.60;99.90;;;;;;5038705;28;20303;-69
2020/12/17 11:10:25;;;;;;;;;;;10.40;99.90;;;;;;5055056;28;19917;-69
2020/12/17 11:12:50;;;;;;;;;;;10.50;99.90;;;;;;5047705;28;19959;-69
2020/12/17 11:15:16;;;;;;;;;;;10.60;99.90;;;;;;5042036;28;20506;-69
2020/12/17 11:17:41;;;;;;;;;;;10.40;99.90;;;;;;5056269;28;19921;-69
2020/12/17 11:20:07;;;;;;;;;;;10.50;99.90;;;;;;5056147;28;19912;-70
2020/12/17 11:22:32;;;;;;;;;;;10.50;99.90;;;;;;5049907;28;20418;-69
2020/12/17 11:24:58;;;;;;;;;;;10.70;99.90;;;;;;5055783;28;19916;-69
2020/12/17 11:27:24;;;;;;;;;;;10.70;99.90;;;;;;5046524;28;20280;-69
2020/12/17 11:29:50;;;;;;;;;;;10.70;99.90;;;;;;5051901;28;19908;-69
2020/12/17 11:32:18;;;;;;;;;;;10.80;99.90;;;;;;5055891;28;19961;-70
2020/12/17 11:34:44;;;;;;;;;;;11.50;99.90;;;;;;5059833;28;19939;-69
2020/12/17 11:37:09;;;;;;;;;;;11.40;99.90;;;;;;5050861;28;20428;-69
2020/12/17 11:39:35;;;;;;;;;;;11.20;99.90;;;;;;5049472;28;19917;-69
2020/12/17 11:42:00;;;;;;;;;;;11.10;99.90;;;;;;5053569;28;20003;-69
2020/12/17 11:44:26;;;;;;;;;;;11.00;99.90;;;;;;5045316;28;19919;-70
2020/12/17 11:46:51;;;;;;;;;;;11.20;99.90;;;;;;5055273;28;20287;-69
2020/12/17 11:49:17;;;;;;;;;;;11.70;99.90;;;;;;5063188;28;19916;-68
2020/12/17 11:51:43;;;;;;;;;;;11.80;99.90;;;;;;5061723;28;19928;-68
2020/12/17 11:54:08;;;;;;;;;;;11.40;99.90;;;;;;5061059;28;19940;-67
2020/12/17 11:56:34;;;;;;;;;;;11.30;99.90;;;;;;5060446;28;19920;-67
2020/12/17 11:58:59;;;;;;;;;;;11.20;99.90;;;;;;5048919;28;19908;-67
2020/12/17 12:01:29;;;;;;;;;;;10.90;99.90;;;;;;5060399;28;20421;-67
2020/12/17 12:06:17;;;;;;;7.43;2.28;;;10.80;99.90;;;;;;5071324;27;20403;-62
2020/12/17 12:08:42;;;;;;;7.70;1.83;;;10.90;99.90;;;;;;5055157;28;20082;-62
2020/12/17 12:11:08;;;;;;;6.22;1.92;;;10.90;99.90;;;;;;5056793;28;20033;-62
2020/12/17 12:13:33;;;;;;;5.95;1.60;;;10.90;99.90;;;;;;5050456;28;20029;-65
2020/12/17 12:15:59;;;;;;;8.93;1.95;;;11.40;99.90;;;;;;5051945;28;20013;-64
2020/12/17 12:18:25;;;;;;;6.95;2.03;;;11.80;99.90;;;;;;5053814;28;20392;-63
2020/12/17 12:20:50;;;;;;;4.53;1.70;;;12.60;99.90;;;;;;5051518;28;20052;-63
2020/12/17 12:23:16;;;;;;;5.65;1.88;;;12.90;98.50;;;;;;5051431;28;20467;-64
2020/12/17 12:25:42;;;;;;;8.88;2.53;;;13.20;98.40;;;;;;5052393;28;20072;-63
2020/12/17 12:28:08;;;;;;;4.32;1.50;;;13.30;96.60;;;;;;5053989;28;20033;-64
2020/12/17 12:30:34;;;;;;;6.32;1.70;;;13.20;96.70;;;;;;5052709;28;20039;-64
2020/12/17 12:33:00;;;;;;;8.65;2.15;;;13.40;97.30;;;;;;5050275;28;20052;-64
2020/12/17 12:35:25;;;;;;;5.03;1.90;;;12.70;96.90;;;;;;5055213;28;20898;-62
2020/12/17 12:37:51;;;;;;;5.78;1.95;;;12.20;98.30;;;;;;5045823;28;20045;-62
2020/12/17 12:40:17;;;;;;;6.30;2.13;;;11.70;98.80;;;;;;5052338;28;20368;-63
2020/12/17 12:42:42;;;;;;;9.85;2.35;;;11.40;99.90;;;;;;5048622;28;20071;-64
2020/12/17 12:45:08;;;;;;;3.92;1.60;;;11.40;99.90;;;;;;5056395;28;20504;-64
2020/12/17 12:47:34;;;;;;;5.43;1.80;;;11.60;99.90;;;;;;5052221;28;20035;-64
2020/12/17 12:50:00;;;;;;;6.70;2.03;;;11.60;99.30;;;;;;5052182;28;20029;-64
2020/12/17 12:52:25;;;;;;;5.32;1.88;;;11.90;99.10;;;;;;5050022;28;20043;-64
2020/12/17 12:54:51;;;;;;;4.88;1.80;;;11.90;99.60;;;;;;5050447;28;20029;-64
2020/12/17 12:57:17;;;;;;;6.72;2.13;;;11.50;98.90;;;;;;5050542;28;20043;-65
2020/12/17 12:59:43;;;;;;;4.80;1.80;;;11.70;98.80;;;;;;5049839;28;20035;-63
2020/12/17 13:02:08;;;;;;;5.72;1.80;;;12.50;97.90;;;;;;5052416;28;20057;-64
2020/12/17 13:04:34;;;;;;;8.27;2.22;;;12.60;97.90;;;;;;5064294;28;20550;-64
2020/12/17 13:07:00;;;;;;;11.10;2.78;;;12.80;97.60;;;;;;5071301;28;20028;-64
2020/12/17 13:09:26;;;;;;;5.78;1.58;;;13.20;96.10;;;;;;5076941;28;20427;-64
2020/12/17 13:11:55;;;;;;;7.88;2.05;;;12.60;96.60;;;;;;5071625;28;20036;-64
2020/12/17 13:14:21;;;;;;;8.15;2.10;;;11.90;97.90;;;;;;5072185;28;20145;-65
2020/12/17 13:16:46;;;;;;;6.68;2.38;;;11.70;99.60;;;;;;5050254;28;20509;-65
2020/12/17 13:19:15;;;;;;;11.80;2.03;;;11.60;99.80;;;;;;5055474;28;20071;-65
2020/12/17 13:21:42;;;;;;;6.82;1.80;;;11.90;99.80;;;;;;5053752;28;20429;-64
2020/12/17 13:27:14;;;;;;;7.15;1.90;;;11.60;98.50;;;;;;5033397;28;20025;-64
2020/12/17 13:29:39;;;;;;;9.55;1.80;;;11.70;98.50;;;;;;5068231;28;20642;-64
2020/12/17 13:32:05;;;;;;;7.15;1.90;;;11.70;98.80;;;;;;5067145;28;20114;-63
